sensor_id;sensor_type;location;lat;lon;timestamp;P1;durP1;ratioP1;P2;durP2;ratioP2
49730;SDS011;35622;52.008;5.426;2022-10-17T00:00:23;22.10;;;11.05;;
49730;SDS011;35622;52.008;5.426;2022-10-17T00:02:49;19.90;;;9.98;;
49730;SDS011;35622;52.008;5.426;2022-10-17T00:05:14;15.00;;;10.13;;
49730;SDS011;35622;52.008;5.426;2022-10-17T00:07:40;12.38;;;10.15;;
49730;SDS011;35622;52.008;5.426;2022-10-17T00:10:06;15.93;;;11.00;;
49730;SDS011;35622;52.008;5.426;2022-10-17T00:12:32;15.48;;;11.07;;
49730;SDS011;35622;52.008;5.426;2022-10-17T00:14:58;20.23;;;10.45;;
49730;SDS011;35622;52.008;5.426;2022-10-17T00:17:24;20.70;;;10.55;;
49730;SDS011;35622;52.008;5.426;2022-10-17T00:19:49;16.73;;;10.60;;
49730;SDS011;35622;52.008;5.426;2022-10-17T00:22:15;18.50;;;10.63;;
49730;SDS011;35622;52.008;5.426;2022-10-17T00:24:40;22.83;;;10.13;;
49730;SDS011;35622;52.008;5.426;2022-10-17T00:27:06;14.82;;;10.07;;
49730;SDS011;35622;52.008;5.426;2022-10-17T00:29:32;21.80;;;9.32;;
49730;SDS011;35622;52.008;5.426;2022-10-17T00:31:57;15.70;;;8.95;;
49730;SDS011;35622;52.008;5.426;2022-10-17T00:34:23;16.23;;;8.75;;
49730;SDS011;35622;52.008;5.426;2022-10-17T00:36:49;22.27;;;9.48;;
49730;SDS011;35622;52.008;5.426;2022-10-17T00:39:14;15.30;;;9.23;;
49730;SDS011;35622;52.008;5.426;2022-10-17T00:41:40;15.32;;;8.98;;
49730;SDS011;35622;52.008;5.426;2022-10-17T00:44:53;16.95;;;9.48;;
49730;SDS011;35622;52.008;5.426;2022-10-17T00:46:54;16.45;;;10.32;;
49730;SDS011;35622;52.008;5.426;2022-10-17T00:49:20;19.25;;;10.48;;
49730;SDS011;35622;52.008;5.426;2022-10-17T00:51:49;19.55;;;9.77;;
49730;SDS011;35622;52.008;5.426;2022-10-17T00:54:19;16.83;;;10.48;;
49730;SDS011;35622;52.008;5.426;2022-10-17T00:56:47;16.60;;;10.05;;
49730;SDS011;35622;52.008;5.426;2022-10-17T00:59:14;17.08;;;11.55;;
49730;SDS011;35622;52.008;5.426;2022-10-17T01:01:41;20.98;;;11.57;;
49730;SDS011;35622;52.008;5.426;2022-10-17T01:04:12;19.27;;;10.18;;
49730;SDS011;35622;52.008;5.426;2022-10-17T01:06:38;17.23;;;11.98;;
49730;SDS011;35622;52.008;5.426;2022-10-17T01:09:04;17.42;;;10.95;;
49730;SDS011;35622;52.008;5.426;2022-10-17T01:11:43;18.23;;;10.13;;
49730;SDS011;35622;52.008;5.426;2022-10-17T01:14:28;15.10;;;10.90;;
49730;SDS011;35622;52.008;5.426;2022-10-17T01:17:05;18.38;;;11.05;;
49730;SDS011;35622;52.008;5.426;2022-10-17T01:25:18;16.88;;;11.27;;
49730;SDS011;35622;52.008;5.426;2022-10-17T01:36:07;19.52;;;11.65;;
49730;SDS011;35622;52.008;5.426;2022-10-17T01:38:57;16.27;;;12.45;;
49730;SDS011;35622;52.008;5.426;2022-10-17T01:44:24;21.30;;;12.10;;
49730;SDS011;35622;52.008;5.426;2022-10-17T01:46:59;16.30;;;10.77;;
49730;SDS011;35622;52.008;5.426;2022-10-17T01:49:32;18.92;;;12.10;;
49730;SDS011;35622;52.008;5.426;2022-10-17T01:52:09;25.20;;;12.30;;
49730;SDS011;35622;52.008;5.426;2022-10-17T01:54:46;20.27;;;11.05;;
49730;SDS011;35622;52.008;5.426;2022-10-17T01:57:23;16.88;;;13.05;;
49730;SDS011;35622;52.008;5.426;2022-10-17T01:59:55;22.23;;;13.85;;
49730;SDS011;35622;52.008;5.426;2022-10-17T02:02:22;23.73;;;13.45;;
49730;SDS011;35622;52.008;5.426;2022-10-17T02:04:49;20.70;;;13.88;;
49730;SDS011;35622;52.008;5.426;2022-10-17T02:07:16;24.45;;;14.45;;
49730;SDS011;35622;52.008;5.426;2022-10-17T02:09:41;22.05;;;13.15;;
49730;SDS011;35622;52.008;5.426;2022-10-17T02:12:14;23.83;;;14.10;;
49730;SDS011;35622;52.008;5.426;2022-10-17T02:20:23;25.58;;;14.45;;
49730;SDS011;35622;52.008;5.426;2022-10-17T02:22:55;26.38;;;14.48;;
49730;SDS011;35622;52.008;5.426;2022-10-17T02:25:39;24.35;;;13.75;;
49730;SDS011;35622;52.008;5.426;2022-10-17T02:28:25;20.10;;;15.65;;
49730;SDS011;35622;52.008;5.426;2022-10-17T02:30:59;28.48;;;15.52;;
49730;SDS011;35622;52.008;5.426;2022-10-17T02:33:30;22.83;;;14.25;;
49730;SDS011;35622;52.008;5.426;2022-10-17T02:36:06;19.17;;;14.25;;
49730;SDS011;35622;52.008;5.426;2022-10-17T02:38:35;23.13;;;14.48;;
49730;SDS011;35622;52.008;5.426;2022-10-17T02:41:03;21.38;;;14.73;;
49730;SDS011;35622;52.008;5.426;2022-10-17T02:43:31;20.52;;;14.05;;
49730;SDS011;35622;52.008;5.426;2022-10-17T02:45:58;23.42;;;14.82;;
49730;SDS011;35622;52.008;5.426;2022-10-17T02:48:27;25.20;;;14.50;;
49730;SDS011;35622;52.008;5.426;2022-10-17T02:51:06;23.23;;;14.65;;
49730;SDS011;35622;52.008;5.426;2022-10-17T02:56:57;25.05;;;14.90;;
49730;SDS011;35622;52.008;5.426;2022-10-17T02:59:26;23.10;;;15.95;;
49730;SDS011;35622;52.008;5.426;2022-10-17T03:01:54;21.70;;;14.73;;
49730;SDS011;35622;52.008;5.426;2022-10-17T03:04:20;19.05;;;14.23;;
49730;SDS011;35622;52.008;5.426;2022-10-17T03:06:46;23.10;;;15.35;;
49730;SDS011;35622;52.008;5.426;2022-10-17T03:09:13;26.63;;;15.45;;
49730;SDS011;35622;52.008;5.426;2022-10-17T03:11:39;24.45;;;14.45;;
49730;SDS011;35622;52.008;5.426;2022-10-17T03:14:05;21.13;;;14.40;;
49730;SDS011;35622;52.008;5.426;2022-10-17T03:16:30;22.92;;;15.30;;
49730;SDS011;35622;52.008;5.426;2022-10-17T03:18:56;21.17;;;13.65;;
49730;SDS011;35622;52.008;5.426;2022-10-17T03:21:22;22.25;;;14.75;;
49730;SDS011;35622;52.008;5.426;2022-10-17T03:23:47;24.08;;;14.23;;
49730;SDS011;35622;52.008;5.426;2022-10-17T03:26:13;25.52;;;13.15;;
49730;SDS011;35622;52.008;5.426;2022-10-17T03:28:38;23.30;;;13.93;;
49730;SDS011;35622;52.008;5.426;2022-10-17T03:31:12;18.75;;;13.10;;
49730;SDS011;35622;52.008;5.426;2022-10-17T03:33:39;24.30;;;14.40;;
49730;SDS011;35622;52.008;5.426;2022-10-17T03:36:05;24.85;;;14.68;;
49730;SDS011;35622;52.008;5.426;2022-10-17T03:38:33;27.08;;;13.70;;
49730;SDS011;35622;52.008;5.426;2022-10-17T03:40:59;25.00;;;13.18;;
49730;SDS011;35622;52.008;5.426;2022-10-17T03:43:25;26.20;;;14.68;;
49730;SDS011;35622;52.008;5.426;2022-10-17T03:45:51;29.70;;;14.88;;
49730;SDS011;35622;52.008;5.426;2022-10-17T03:48:16;20.63;;;14.95;;
49730;SDS011;35622;52.008;5.426;2022-10-17T03:50:42;35.38;;;15.77;;
49730;SDS011;35622;52.008;5.426;2022-10-17T03:53:07;18.35;;;13.57;;
49730;SDS011;35622;52.008;5.426;2022-10-17T03:55:33;24.25;;;14.52;;
49730;SDS011;35622;52.008;5.426;2022-10-17T03:57:58;22.25;;;13.93;;
49730;SDS011;35622;52.008;5.426;2022-10-17T04:00:24;28.55;;;14.48;;
49730;SDS011;35622;52.008;5.426;2022-10-17T04:02:49;24.58;;;14.45;;
49730;SDS011;35622;52.008;5.426;2022-10-17T04:05:15;23.75;;;14.52;;
49730;SDS011;35622;52.008;5.426;2022-10-17T04:07:40;24.15;;;14.85;;
49730;SDS011;35622;52.008;5.426;2022-10-17T04:10:06;29.45;;;14.10;;
49730;SDS011;35622;52.008;5.426;2022-10-17T04:12:32;30.63;;;13.50;;
49730;SDS011;35622;52.008;5.426;2022-10-17T04:14:57;24.98;;;14.07;;
49730;SDS011;35622;52.008;5.426;2022-10-17T04:17:23;26.35;;;15.02;;
49730;SDS011;35622;52.008;5.426;2022-10-17T04:19:48;27.35;;;13.63;;
49730;SDS011;35622;52.008;5.426;2022-10-17T04:22:14;25.95;;;13.32;;
49730;SDS011;35622;52.008;5.426;2022-10-17T04:24:39;32.28;;;14.27;;
49730;SDS011;35622;52.008;5.426;2022-10-17T04:27:05;28.20;;;13.88;;
49730;SDS011;35622;52.008;5.426;2022-10-17T04:29:31;26.02;;;13.43;;
49730;SDS011;35622;52.008;5.426;2022-10-17T04:31:56;21.52;;;13.77;;
49730;SDS011;35622;52.008;5.426;2022-10-17T04:34:22;24.35;;;15.00;;
49730;SDS011;35622;52.008;5.426;2022-10-17T04:36:47;27.73;;;15.48;;
49730;SDS011;35622;52.008;5.426;2022-10-17T04:39:13;30.27;;;15.30;;
49730;SDS011;35622;52.008;5.426;2022-10-17T04:41:38;22.15;;;15.10;;
49730;SDS011;35622;52.008;5.426;2022-10-17T04:44:04;35.25;;;14.30;;
49730;SDS011;35622;52.008;5.426;2022-10-17T04:46:29;28.33;;;15.25;;
49730;SDS011;35622;52.008;5.426;2022-10-17T04:48:57;29.35;;;15.63;;
49730;SDS011;35622;52.008;5.426;2022-10-17T04:51:23;39.28;;;15.90;;
49730;SDS011;35622;52.008;5.426;2022-10-17T04:53:48;25.70;;;14.57;;
49730;SDS011;35622;52.008;5.426;2022-10-17T04:56:18;28.38;;;15.23;;
49730;SDS011;35622;52.008;5.426;2022-10-17T04:58:46;26.17;;;15.65;;
49730;SDS011;35622;52.008;5.426;2022-10-17T05:01:12;31.65;;;16.90;;
49730;SDS011;35622;52.008;5.426;2022-10-17T05:03:40;33.58;;;16.75;;
49730;SDS011;35622;52.008;5.426;2022-10-17T05:06:10;30.27;;;15.68;;
49730;SDS011;35622;52.008;5.426;2022-10-17T05:08:39;27.10;;;17.55;;
49730;SDS011;35622;52.008;5.426;2022-10-17T05:11:12;33.20;;;16.63;;
49730;SDS011;35622;52.008;5.426;2022-10-17T05:13:43;27.17;;;15.98;;
49730;SDS011;35622;52.008;5.426;2022-10-17T05:16:09;31.45;;;17.17;;
49730;SDS011;35622;52.008;5.426;2022-10-17T05:18:34;30.20;;;14.88;;
49730;SDS011;35622;52.008;5.426;2022-10-17T05:21:01;24.92;;;16.30;;
49730;SDS011;35622;52.008;5.426;2022-10-17T05:23:28;30.83;;;16.30;;
49730;SDS011;35622;52.008;5.426;2022-10-17T05:25:54;29.73;;;17.52;;
49730;SDS011;35622;52.008;5.426;2022-10-17T05:28:20;36.70;;;17.40;;
49730;SDS011;35622;52.008;5.426;2022-10-17T05:30:46;27.10;;;17.63;;
49730;SDS011;35622;52.008;5.426;2022-10-17T05:33:12;25.55;;;16.65;;
49730;SDS011;35622;52.008;5.426;2022-10-17T05:35:38;28.00;;;16.15;;
49730;SDS011;35622;52.008;5.426;2022-10-17T05:38:03;32.03;;;18.13;;
49730;SDS011;35622;52.008;5.426;2022-10-17T05:40:29;38.40;;;17.45;;
49730;SDS011;35622;52.008;5.426;2022-10-17T05:42:54;26.00;;;15.15;;
49730;SDS011;35622;52.008;5.426;2022-10-17T05:45:20;30.00;;;17.15;;
49730;SDS011;35622;52.008;5.426;2022-10-17T05:47:45;30.20;;;16.63;;
49730;SDS011;35622;52.008;5.426;2022-10-17T05:50:11;31.30;;;17.90;;
49730;SDS011;35622;52.008;5.426;2022-10-17T05:52:37;33.78;;;17.40;;
49730;SDS011;35622;52.008;5.426;2022-10-17T05:55:03;37.65;;;18.55;;
49730;SDS011;35622;52.008;5.426;2022-10-17T05:57:29;38.90;;;16.77;;
49730;SDS011;35622;52.008;5.426;2022-10-17T05:59:55;30.40;;;17.25;;
49730;SDS011;35622;52.008;5.426;2022-10-17T06:02:22;31.55;;;15.45;;
49730;SDS011;35622;52.008;5.426;2022-10-17T06:04:47;28.55;;;16.35;;
49730;SDS011;35622;52.008;5.426;2022-10-17T06:07:14;24.00;;;14.93;;
49730;SDS011;35622;52.008;5.426;2022-10-17T06:09:40;22.42;;;14.45;;
49730;SDS011;35622;52.008;5.426;2022-10-17T06:12:06;28.02;;;15.60;;
49730;SDS011;35622;52.008;5.426;2022-10-17T06:14:32;25.33;;;15.02;;
49730;SDS011;35622;52.008;5.426;2022-10-17T06:16:57;34.28;;;14.88;;
49730;SDS011;35622;52.008;5.426;2022-10-17T06:19:23;21.48;;;13.20;;
49730;SDS011;35622;52.008;5.426;2022-10-17T06:21:49;26.35;;;15.00;;
49730;SDS011;35622;52.008;5.426;2022-10-17T06:24:15;20.50;;;14.43;;
49730;SDS011;35622;52.008;5.426;2022-10-17T06:26:41;21.60;;;14.73;;
49730;SDS011;35622;52.008;5.426;2022-10-17T06:29:06;27.02;;;17.35;;
49730;SDS011;35622;52.008;5.426;2022-10-17T06:31:32;27.48;;;16.58;;
49730;SDS011;35622;52.008;5.426;2022-10-17T06:33:57;28.30;;;16.90;;
49730;SDS011;35622;52.008;5.426;2022-10-17T06:36:23;32.85;;;17.25;;
49730;SDS011;35622;52.008;5.426;2022-10-17T06:38:48;26.10;;;14.85;;
49730;SDS011;35622;52.008;5.426;2022-10-17T06:41:15;28.17;;;14.68;;
49730;SDS011;35622;52.008;5.426;2022-10-17T06:43:43;27.10;;;14.50;;
49730;SDS011;35622;52.008;5.426;2022-10-17T06:46:13;22.67;;;15.27;;
49730;SDS011;35622;52.008;5.426;2022-10-17T06:48:40;25.88;;;15.68;;
49730;SDS011;35622;52.008;5.426;2022-10-17T06:51:06;26.20;;;15.13;;
49730;SDS011;35622;52.008;5.426;2022-10-17T06:53:35;27.55;;;15.68;;
49730;SDS011;35622;52.008;5.426;2022-10-17T06:56:03;24.13;;;14.98;;
49730;SDS011;35622;52.008;5.426;2022-10-17T06:58:30;23.65;;;15.57;;
49730;SDS011;35622;52.008;5.426;2022-10-17T07:00:58;25.63;;;15.77;;
49730;SDS011;35622;52.008;5.426;2022-10-17T07:03:25;26.48;;;15.82;;
49730;SDS011;35622;52.008;5.426;2022-10-17T07:05:51;23.75;;;15.27;;
49730;SDS011;35622;52.008;5.426;2022-10-17T07:08:17;22.23;;;14.18;;
49730;SDS011;35622;52.008;5.426;2022-10-17T07:10:43;25.90;;;16.10;;
49730;SDS011;35622;52.008;5.426;2022-10-17T07:13:09;26.92;;;15.75;;
49730;SDS011;35622;52.008;5.426;2022-10-17T07:15:35;24.30;;;15.00;;
49730;SDS011;35622;52.008;5.426;2022-10-17T07:18:01;24.02;;;15.07;;
49730;SDS011;35622;52.008;5.426;2022-10-17T07:20:27;22.15;;;14.07;;
49730;SDS011;35622;52.008;5.426;2022-10-17T07:22:52;19.83;;;13.95;;
49730;SDS011;35622;52.008;5.426;2022-10-17T07:25:18;28.17;;;15.07;;
49730;SDS011;35622;52.008;5.426;2022-10-17T07:27:43;29.90;;;15.80;;
49730;SDS011;35622;52.008;5.426;2022-10-17T07:30:09;27.13;;;14.93;;
49730;SDS011;35622;52.008;5.426;2022-10-17T07:32:35;23.08;;;14.82;;
49730;SDS011;35622;52.008;5.426;2022-10-17T07:35:01;24.80;;;14.75;;
49730;SDS011;35622;52.008;5.426;2022-10-17T07:37:27;23.52;;;15.25;;
49730;SDS011;35622;52.008;5.426;2022-10-17T07:39:53;21.23;;;14.50;;
49730;SDS011;35622;52.008;5.426;2022-10-17T07:42:20;30.48;;;13.77;;
49730;SDS011;35622;52.008;5.426;2022-10-17T07:44:46;21.10;;;13.93;;
49730;SDS011;35622;52.008;5.426;2022-10-17T07:47:12;23.60;;;14.73;;
49730;SDS011;35622;52.008;5.426;2022-10-17T07:49:37;25.55;;;14.27;;
49730;SDS011;35622;52.008;5.426;2022-10-17T07:52:08;24.05;;;14.18;;
49730;SDS011;35622;52.008;5.426;2022-10-17T07:54:34;23.65;;;14.00;;
49730;SDS011;35622;52.008;5.426;2022-10-17T07:57:00;23.45;;;13.50;;
49730;SDS011;35622;52.008;5.426;2022-10-17T07:59:25;22.20;;;14.07;;
49730;SDS011;35622;52.008;5.426;2022-10-17T08:01:53;23.45;;;13.90;;
49730;SDS011;35622;52.008;5.426;2022-10-17T08:04:19;29.52;;;13.80;;
49730;SDS011;35622;52.008;5.426;2022-10-17T08:06:45;25.65;;;15.13;;
49730;SDS011;35622;52.008;5.426;2022-10-17T08:09:11;28.27;;;14.30;;
49730;SDS011;35622;52.008;5.426;2022-10-17T08:11:36;29.35;;;14.85;;
49730;SDS011;35622;52.008;5.426;2022-10-17T08:14:02;35.40;;;15.93;;
49730;SDS011;35622;52.008;5.426;2022-10-17T08:16:28;29.83;;;16.38;;
49730;SDS011;35622;52.008;5.426;2022-10-17T08:18:53;30.55;;;14.43;;
49730;SDS011;35622;52.008;5.426;2022-10-17T08:21:19;29.25;;;16.13;;
49730;SDS011;35622;52.008;5.426;2022-10-17T08:23:44;27.33;;;15.65;;
49730;SDS011;35622;52.008;5.426;2022-10-17T08:26:10;24.42;;;14.90;;
49730;SDS011;35622;52.008;5.426;2022-10-17T08:28:37;24.58;;;15.45;;
49730;SDS011;35622;52.008;5.426;2022-10-17T08:31:05;30.17;;;16.85;;
49730;SDS011;35622;52.008;5.426;2022-10-17T08:33:32;23.65;;;15.75;;
49730;SDS011;35622;52.008;5.426;2022-10-17T08:35:58;23.42;;;16.25;;
49730;SDS011;35622;52.008;5.426;2022-10-17T08:38:25;36.58;;;15.50;;
49730;SDS011;35622;52.008;5.426;2022-10-17T08:40:53;26.90;;;14.27;;
49730;SDS011;35622;52.008;5.426;2022-10-17T08:46:10;25.08;;;14.93;;
49730;SDS011;35622;52.008;5.426;2022-10-17T08:48:38;27.20;;;15.30;;
49730;SDS011;35622;52.008;5.426;2022-10-17T08:51:17;32.47;;;15.60;;
49730;SDS011;35622;52.008;5.426;2022-10-17T08:54:42;25.58;;;15.13;;
49730;SDS011;35622;52.008;5.426;2022-10-17T08:56:49;24.85;;;15.15;;
49730;SDS011;35622;52.008;5.426;2022-10-17T08:59:26;77.93;;;17.58;;
49730;SDS011;35622;52.008;5.426;2022-10-17T09:02:02;26.73;;;14.48;;
49730;SDS011;35622;52.008;5.426;2022-10-17T09:04:58;30.70;;;15.75;;
49730;SDS011;35622;52.008;5.426;2022-10-17T09:10:46;19.77;;;14.30;;
49730;SDS011;35622;52.008;5.426;2022-10-17T09:16:06;55.85;;;17.55;;
49730;SDS011;35622;52.008;5.426;2022-10-17T09:21:40;22.02;;;13.57;;
49730;SDS011;35622;52.008;5.426;2022-10-17T09:24:12;39.72;;;15.40;;
49730;SDS011;35622;52.008;5.426;2022-10-17T09:26:44;33.00;;;14.80;;
49730;SDS011;35622;52.008;5.426;2022-10-17T09:29:15;42.50;;;15.57;;
49730;SDS011;35622;52.008;5.426;2022-10-17T09:31:59;20.15;;;13.70;;
49730;SDS011;35622;52.008;5.426;2022-10-17T09:34:28;19.05;;;12.48;;
49730;SDS011;35622;52.008;5.426;2022-10-17T09:36:57;21.73;;;12.77;;
49730;SDS011;35622;52.008;5.426;2022-10-17T09:39:23;31.23;;;14.02;;
49730;SDS011;35622;52.008;5.426;2022-10-17T09:44:26;18.90;;;14.52;;
49730;SDS011;35622;52.008;5.426;2022-10-17T09:49:47;24.30;;;15.48;;
49730;SDS011;35622;52.008;5.426;2022-10-17T09:52:18;20.75;;;14.43;;
49730;SDS011;35622;52.008;5.426;2022-10-17T09:57:13;17.42;;;14.52;;
49730;SDS011;35622;52.008;5.426;2022-10-17T10:04:39;21.73;;;13.98;;
49730;SDS011;35622;52.008;5.426;2022-10-17T10:07:20;16.92;;;14.13;;
49730;SDS011;35622;52.008;5.426;2022-10-17T10:09:47;19.27;;;14.85;;
49730;SDS011;35622;52.008;5.426;2022-10-17T10:12:18;19.77;;;13.13;;
49730;SDS011;35622;52.008;5.426;2022-10-17T10:14:48;19.67;;;13.40;;
49730;SDS011;35622;52.008;5.426;2022-10-17T10:17:28;22.70;;;14.30;;
49730;SDS011;35622;52.008;5.426;2022-10-17T10:19:54;18.10;;;13.00;;
49730;SDS011;35622;52.008;5.426;2022-10-17T10:22:20;17.48;;;12.82;;
49730;SDS011;35622;52.008;5.426;2022-10-17T10:27:42;18.10;;;12.43;;
49730;SDS011;35622;52.008;5.426;2022-10-17T10:30:19;17.40;;;12.18;;
49730;SDS011;35622;52.008;5.426;2022-10-17T10:32:49;20.17;;;11.77;;
49730;SDS011;35622;52.008;5.426;2022-10-17T10:37:50;20.13;;;11.82;;
49730;SDS011;35622;52.008;5.426;2022-10-17T10:42:45;24.38;;;12.13;;
49730;SDS011;35622;52.008;5.426;2022-10-17T10:45:15;15.93;;;11.70;;
49730;SDS011;35622;52.008;5.426;2022-10-17T10:50:21;16.08;;;11.80;;
49730;SDS011;35622;52.008;5.426;2022-10-17T10:55:30;20.77;;;10.80;;
49730;SDS011;35622;52.008;5.426;2022-10-17T10:58:00;17.02;;;11.20;;
49730;SDS011;35622;52.008;5.426;2022-10-17T11:00:31;14.20;;;10.35;;
49730;SDS011;35622;52.008;5.426;2022-10-17T11:05:34;14.25;;;10.50;;
49730;SDS011;35622;52.008;5.426;2022-10-17T11:08:11;17.67;;;10.18;;
49730;SDS011;35622;52.008;5.426;2022-10-17T11:11:03;19.33;;;10.63;;
49730;SDS011;35622;52.008;5.426;2022-10-17T11:13:42;19.08;;;10.60;;
49730;SDS011;35622;52.008;5.426;2022-10-17T11:16:15;17.80;;;10.35;;
49730;SDS011;35622;52.008;5.426;2022-10-17T11:19:10;18.20;;;10.35;;
49730;SDS011;35622;52.008;5.426;2022-10-17T11:27:20;13.07;;;9.40;;
49730;SDS011;35622;52.008;5.426;2022-10-17T11:29:47;19.98;;;9.30;;
49730;SDS011;35622;52.008;5.426;2022-10-17T11:34:49;13.20;;;8.95;;
49730;SDS011;35622;52.008;5.426;2022-10-17T11:37:22;15.18;;;9.38;;
49730;SDS011;35622;52.008;5.426;2022-10-17T11:39:52;13.00;;;9.07;;
49730;SDS011;35622;52.008;5.426;2022-10-17T11:42:25;11.93;;;8.30;;
49730;SDS011;35622;52.008;5.426;2022-10-17T11:44:57;12.80;;;8.25;;
49730;SDS011;35622;52.008;5.426;2022-10-17T11:47:35;12.65;;;9.15;;
49730;SDS011;35622;52.008;5.426;2022-10-17T11:52:45;20.17;;;9.40;;
49730;SDS011;35622;52.008;5.426;2022-10-17T11:55:18;10.05;;;8.50;;
49730;SDS011;35622;52.008;5.426;2022-10-17T11:57:51;19.30;;;9.68;;
49730;SDS011;35622;52.008;5.426;2022-10-17T12:06:10;13.57;;;8.20;;
49730;SDS011;35622;52.008;5.426;2022-10-17T12:11:38;12.80;;;7.57;;
49730;SDS011;35622;52.008;5.426;2022-10-17T12:17:02;13.40;;;8.20;;
49730;SDS011;35622;52.008;5.426;2022-10-17T12:19:30;16.92;;;8.32;;
49730;SDS011;35622;52.008;5.426;2022-10-17T12:22:15;15.05;;;8.18;;
49730;SDS011;35622;52.008;5.426;2022-10-17T12:24:53;13.85;;;7.93;;
49730;SDS011;35622;52.008;5.426;2022-10-17T12:28:02;13.35;;;8.00;;
49730;SDS011;35622;52.008;5.426;2022-10-17T12:35:46;12.48;;;8.10;;
49730;SDS011;35622;52.008;5.426;2022-10-17T12:56:02;16.50;;;9.85;;
49730;SDS011;35622;52.008;5.426;2022-10-17T12:58:27;13.10;;;8.88;;
49730;SDS011;35622;52.008;5.426;2022-10-17T13:00:55;18.52;;;9.00;;
49730;SDS011;35622;52.008;5.426;2022-10-17T13:03:23;15.10;;;9.23;;
49730;SDS011;35622;52.008;5.426;2022-10-17T13:05:57;16.17;;;9.43;;
49730;SDS011;35622;52.008;5.426;2022-10-17T13:08:27;16.80;;;9.43;;
49730;SDS011;35622;52.008;5.426;2022-10-17T13:10:56;19.60;;;9.70;;
49730;SDS011;35622;52.008;5.426;2022-10-17T13:13:25;18.88;;;10.45;;
49730;SDS011;35622;52.008;5.426;2022-10-17T13:15:59;24.85;;;10.20;;
49730;SDS011;35622;52.008;5.426;2022-10-17T13:18:25;17.67;;;10.40;;
49730;SDS011;35622;52.008;5.426;2022-10-17T13:21:14;17.80;;;9.73;;
49730;SDS011;35622;52.008;5.426;2022-10-17T13:23:40;18.52;;;9.52;;
49730;SDS011;35622;52.008;5.426;2022-10-17T13:28:34;16.85;;;8.98;;
49730;SDS011;35622;52.008;5.426;2022-10-17T13:31:00;23.77;;;10.63;;
49730;SDS011;35622;52.008;5.426;2022-10-17T13:33:34;21.48;;;9.57;;
49730;SDS011;35622;52.008;5.426;2022-10-17T13:36:03;23.05;;;9.93;;
49730;SDS011;35622;52.008;5.426;2022-10-17T13:38:36;11.70;;;8.80;;
49730;SDS011;35622;52.008;5.426;2022-10-17T13:41:02;12.43;;;8.35;;
49730;SDS011;35622;52.008;5.426;2022-10-17T13:43:34;11.85;;;8.55;;
49730;SDS011;35622;52.008;5.426;2022-10-17T13:46:00;19.83;;;9.48;;
49730;SDS011;35622;52.008;5.426;2022-10-17T13:48:29;17.85;;;10.00;;
49730;SDS011;35622;52.008;5.426;2022-10-17T13:50:59;10.50;;;8.88;;
49730;SDS011;35622;52.008;5.426;2022-10-17T13:56:04;12.80;;;8.98;;
49730;SDS011;35622;52.008;5.426;2022-10-17T13:58:41;9.57;;;8.35;;
49730;SDS011;35622;52.008;5.426;2022-10-17T14:01:09;17.20;;;9.07;;
49730;SDS011;35622;52.008;5.426;2022-10-17T14:03:37;14.00;;;9.38;;
49730;SDS011;35622;52.008;5.426;2022-10-17T14:06:11;12.10;;;9.38;;
49730;SDS011;35622;52.008;5.426;2022-10-17T14:08:45;13.75;;;8.45;;
49730;SDS011;35622;52.008;5.426;2022-10-17T14:11:29;12.88;;;8.13;;
49730;SDS011;35622;52.008;5.426;2022-10-17T14:14:02;14.52;;;8.48;;
49730;SDS011;35622;52.008;5.426;2022-10-17T14:16:37;21.02;;;9.10;;
49730;SDS011;35622;52.008;5.426;2022-10-17T14:19:04;16.63;;;12.80;;
49730;SDS011;35622;52.008;5.426;2022-10-17T14:21:38;19.77;;;10.32;;
49730;SDS011;35622;52.008;5.426;2022-10-17T14:24:12;13.60;;;10.07;;
49730;SDS011;35622;52.008;5.426;2022-10-17T14:26:45;12.93;;;9.02;;
49730;SDS011;35622;52.008;5.426;2022-10-17T14:29:28;10.50;;;9.13;;
49730;SDS011;35622;52.008;5.426;2022-10-17T14:31:56;15.98;;;8.73;;
49730;SDS011;35622;52.008;5.426;2022-10-17T14:34:29;12.20;;;8.25;;
49730;SDS011;35622;52.008;5.426;2022-10-17T14:36:57;15.25;;;10.55;;
49730;SDS011;35622;52.008;5.426;2022-10-17T14:39:24;14.23;;;9.57;;
49730;SDS011;35622;52.008;5.426;2022-10-17T14:41:51;21.17;;;9.60;;
49730;SDS011;35622;52.008;5.426;2022-10-17T14:44:21;16.52;;;9.32;;
49730;SDS011;35622;52.008;5.426;2022-10-17T14:46:54;20.00;;;8.95;;
49730;SDS011;35622;52.008;5.426;2022-10-17T14:49:32;18.23;;;8.68;;
49730;SDS011;35622;52.008;5.426;2022-10-17T14:52:10;18.08;;;8.90;;
49730;SDS011;35622;52.008;5.426;2022-10-17T14:54:38;15.70;;;8.07;;
49730;SDS011;35622;52.008;5.426;2022-10-17T14:59:43;21.13;;;8.38;;
49730;SDS011;35622;52.008;5.426;2022-10-17T15:02:10;13.45;;;8.05;;
49730;SDS011;35622;52.008;5.426;2022-10-17T15:04:36;14.52;;;8.32;;
49730;SDS011;35622;52.008;5.426;2022-10-17T15:07:01;23.48;;;10.18;;
49730;SDS011;35622;52.008;5.426;2022-10-17T15:09:27;21.98;;;9.85;;
49730;SDS011;35622;52.008;5.426;2022-10-17T15:11:59;15.10;;;9.55;;
49730;SDS011;35622;52.008;5.426;2022-10-17T15:14:26;18.45;;;10.55;;
49730;SDS011;35622;52.008;5.426;2022-10-17T15:16:52;16.35;;;9.40;;
49730;SDS011;35622;52.008;5.426;2022-10-17T15:19:18;18.83;;;9.77;;
49730;SDS011;35622;52.008;5.426;2022-10-17T15:21:44;14.93;;;8.32;;
49730;SDS011;35622;52.008;5.426;2022-10-17T15:24:09;17.85;;;9.45;;
49730;SDS011;35622;52.008;5.426;2022-10-17T15:26:35;21.83;;;11.35;;
49730;SDS011;35622;52.008;5.426;2022-10-17T15:29:01;18.98;;;10.40;;
49730;SDS011;35622;52.008;5.426;2022-10-17T15:31:27;18.08;;;9.40;;
49730;SDS011;35622;52.008;5.426;2022-10-17T15:33:55;20.38;;;9.90;;
49730;SDS011;35622;52.008;5.426;2022-10-17T15:36:28;27.60;;;10.85;;
49730;SDS011;35622;52.008;5.426;2022-10-17T15:38:56;22.80;;;10.98;;
49730;SDS011;35622;52.008;5.426;2022-10-17T15:41:24;20.48;;;11.93;;
49730;SDS011;35622;52.008;5.426;2022-10-17T15:43:51;17.00;;;10.98;;
49730;SDS011;35622;52.008;5.426;2022-10-17T15:46:18;19.50;;;10.95;;
49730;SDS011;35622;52.008;5.426;2022-10-17T15:48:49;17.95;;;10.50;;
49730;SDS011;35622;52.008;5.426;2022-10-17T15:51:15;18.63;;;10.57;;
49730;SDS011;35622;52.008;5.426;2022-10-17T15:53:41;20.70;;;10.40;;
49730;SDS011;35622;52.008;5.426;2022-10-17T15:56:07;32.08;;;11.32;;
49730;SDS011;35622;52.008;5.426;2022-10-17T15:58:42;15.27;;;9.00;;
49730;SDS011;35622;52.008;5.426;2022-10-17T16:01:10;25.88;;;9.52;;
49730;SDS011;35622;52.008;5.426;2022-10-17T16:03:44;22.42;;;8.23;;
49730;SDS011;35622;52.008;5.426;2022-10-17T16:06:11;41.30;;;10.50;;
49730;SDS011;35622;52.008;5.426;2022-10-17T16:08:37;126.68;;;10.75;;
49730;SDS011;35622;52.008;5.426;2022-10-17T16:11:02;29.23;;;10.13;;
49730;SDS011;35622;52.008;5.426;2022-10-17T16:13:28;17.58;;;8.10;;
49730;SDS011;35622;52.008;5.426;2022-10-17T16:15:53;54.13;;;9.85;;
49730;SDS011;35622;52.008;5.426;2022-10-17T16:18:19;17.13;;;9.25;;
49730;SDS011;35622;52.008;5.426;2022-10-17T16:20:45;24.08;;;9.30;;
49730;SDS011;35622;52.008;5.426;2022-10-17T16:23:11;20.17;;;9.55;;
49730;SDS011;35622;52.008;5.426;2022-10-17T16:25:38;41.08;;;10.90;;
49730;SDS011;35622;52.008;5.426;2022-10-17T16:28:04;28.55;;;10.95;;
49730;SDS011;35622;52.008;5.426;2022-10-17T16:30:32;36.45;;;10.77;;
49730;SDS011;35622;52.008;5.426;2022-10-17T16:33:06;23.85;;;11.45;;